Главная страница
METAR-TAF:

METAR-TAF

Аэропорты :

Chautauqua County/Dunkirk Airport

Dunkirk, Нью-Йорк, США

широта: 42-29-35N, долгота: 079-16-33W, высота над уровнем моря: 211 м

Текущие метеонаблюдения

Эта сводка был подготовлена 57 минут назад, в 23:53 UTC
Ветер 4 Узел от восточный
Температура 18°C
Влажность 73%
Давление 1022 hPa
Видимость: 16.1 км
ясное небо

METAR: KDKK 172353Z AUTO 08004KT 10SM CLR 18/13 A3018 RMK AO2 SLP219 T01780128 10233 20178 54000

Время: 20:50 (00:50 UTC)


TAF: отсутствует

Метеонаблюдения и прогнозы для более 4000 аэропортов (сводки METAR и TAF).

Имеющиеся станции представлены на карте желтыми и красными точками.

Чтобы увидеть название станции, наведите на нее мышь.

Затем щелкните, чтобы увидеть метеонаблюдения и метеопрогнозы.

Управление картой: чтобы увеличить масштаб, щелкните зеленые кнопки с черным крестиком; чтобы уменьшить масштаб, щелкните зеленую кнопку с тире; для просмотра соседних карт щелкайте зеленые стрелки.


METAR-TAF: